createdAt,value
2023-03-20T00:01:51.793Z,80.44
2023-03-20T00:04:20.226Z,79.83
2023-03-20T00:06:48.417Z,80.74
2023-03-20T00:09:18.027Z,81.49
2023-03-20T00:11:50.387Z,80.43
2023-03-20T00:14:19.720Z,79.32
2023-03-20T00:16:48.895Z,79.21
2023-03-20T00:19:20.743Z,80.41
2023-03-20T00:21:48.661Z,80.18
2023-03-20T00:24:20.868Z,80.14
2023-03-20T00:26:50.369Z,80.00
2023-03-20T00:29:25.109Z,78.76
2023-03-20T00:31:54.025Z,78.83
2023-03-20T00:34:29.013Z,77.77
2023-03-20T00:36:58.135Z,77.11
2023-03-20T00:39:26.348Z,77.53
2023-03-20T00:41:56.115Z,78.39
2023-03-20T00:44:26.300Z,78.46
2023-03-20T00:46:57.187Z,77.91
2023-03-20T00:49:31.356Z,76.87
2023-03-20T00:51:59.732Z,76.51
2023-03-20T00:54:33.499Z,76.78
2023-03-20T00:57:04.422Z,77.24
2023-03-20T00:59:36.148Z,76.48
2023-03-20T01:02:10.011Z,77.46
2023-03-20T01:04:43.216Z,77.34
2023-03-20T01:07:14.917Z,78.71
2023-03-20T01:09:43.215Z,77.23
2023-03-20T01:12:12.360Z,76.73
2023-03-20T01:14:43.213Z,76.19
2023-03-20T01:17:13.606Z,75.46
2023-03-20T01:19:43.538Z,74.71
2023-03-20T01:22:11.627Z,76.97
2023-03-20T01:24:43.498Z,78.47
2023-03-20T01:27:14.693Z,76.28
2023-03-20T01:29:47.494Z,76.84
2023-03-20T01:32:28.881Z,75.59
2023-03-20T01:34:59.269Z,77.44
2023-03-20T01:37:31.898Z,76.32
2023-03-20T01:40:07.012Z,75.28
2023-03-20T01:42:39.080Z,75.02
2023-03-20T01:45:19.233Z,75.00
2023-03-20T01:47:54.701Z,75.16
2023-03-20T01:50:28.227Z,75.68
2023-03-20T01:53:01.177Z,75.03
2023-03-20T01:55:31.721Z,75.58
2023-03-20T01:58:04.786Z,75.81
2023-03-20T02:00:33.474Z,74.87
2023-03-20T02:03:05.130Z,75.90
2023-03-20T02:05:35.318Z,75.89
2023-03-20T02:08:23.012Z,75.37
2023-03-20T02:10:52.389Z,75.23
2023-03-20T02:13:21.213Z,74.13
2023-03-20T02:16:07.449Z,76.16
2023-03-20T02:18:43.225Z,76.16
2023-03-20T02:21:38.796Z,77.67
2023-03-20T02:24:40.750Z,77.50
2023-03-20T02:27:15.047Z,77.23
2023-03-20T02:30:06.249Z,76.11
2023-03-20T02:33:03.832Z,74.59
2023-03-20T02:35:54.180Z,75.28
2023-03-20T02:38:31.683Z,77.49
2023-03-20T02:41:06.691Z,75.30
2023-03-20T02:43:40.661Z,76.38
2023-03-20T02:46:23.537Z,75.28
2023-03-20T02:48:58.496Z,75.76
2023-03-20T02:51:36.108Z,75.33
2023-03-20T02:54:09.098Z,74.74
2023-03-20T02:56:39.587Z,75.52
2023-03-20T02:59:14.930Z,74.76
2023-03-20T03:01:45.619Z,74.06
2023-03-20T03:04:18.851Z,75.55
2023-03-20T03:06:48.929Z,74.79
2023-03-20T03:09:24.769Z,74.28
2023-03-20T03:11:57.112Z,74.54
2023-03-20T03:14:31.725Z,74.54
2023-03-20T03:17:04.308Z,73.90
2023-03-20T03:19:38.112Z,74.21
2023-03-20T03:22:06.302Z,72.29
2023-03-20T03:24:42.044Z,73.19
2023-03-20T03:27:18.400Z,72.68
2023-03-20T03:29:55.805Z,72.20
2023-03-20T03:32:28.282Z,74.34
2023-03-20T03:34:57.286Z,73.43
2023-03-20T03:37:31.166Z,72.99
2023-03-20T03:40:08.116Z,75.45
2023-03-20T03:42:40.861Z,73.68
2023-03-20T03:45:21.925Z,73.37
2023-03-20T03:47:55.553Z,73.06
2023-03-20T03:50:26.944Z,73.36
2023-03-20T03:53:00.017Z,72.97
2023-03-20T03:55:31.589Z,72.95
2023-03-20T03:58:02.706Z,74.18
2023-03-20T04:00:32.583Z,74.49
2023-03-20T04:03:00.342Z,74.41
2023-03-20T04:05:35.525Z,74.82
2023-03-20T04:08:08.768Z,75.48
2023-03-20T04:10:37.881Z,74.43
2023-03-20T04:13:06.903Z,73.73
2023-03-20T04:15:37.172Z,74.01
2023-03-20T04:18:05.436Z,72.02
2023-03-20T04:20:36.562Z,72.56
2023-03-20T04:23:11.418Z,73.67
2023-03-20T04:25:42.253Z,74.35
2023-03-20T04:28:11.615Z,75.72
2023-03-20T04:30:48.639Z,75.97
2023-03-20T04:33:21.637Z,74.57
2023-03-20T04:35:50.476Z,73.49
2023-03-20T04:38:20.237Z,74.08
2023-03-20T04:40:54.332Z,73.47
2023-03-20T04:43:22.054Z,72.88
2023-03-20T04:45:52.744Z,73.57
2023-03-20T04:48:22.752Z,74.87
2023-03-20T04:50:50.983Z,74.29
2023-03-20T04:53:19.227Z,74.53
2023-03-20T04:55:48.146Z,74.58
2023-03-20T04:58:21.325Z,74.77
2023-03-20T05:00:51.766Z,72.81
2023-03-20T05:03:22.499Z,74.32
2023-03-20T05:05:59.588Z,74.25
2023-03-20T05:08:27.774Z,74.85
2023-03-20T05:10:59.403Z,76.33
2023-03-20T05:13:36.121Z,76.84
2023-03-20T05:16:04.422Z,75.67
2023-03-20T05:18:32.535Z,76.03
2023-03-20T05:21:01.551Z,75.26
2023-03-20T05:23:30.439Z,72.92
2023-03-20T05:25:58.465Z,72.00
2023-03-20T05:28:26.239Z,71.87
2023-03-20T05:30:58.029Z,71.42
2023-03-20T05:33:30.050Z,70.74
2023-03-20T05:36:03.491Z,71.38
2023-03-20T05:38:34.136Z,72.68
2023-03-20T05:41:15.721Z,70.77
2023-03-20T05:43:44.085Z,71.07
2023-03-20T05:46:18.735Z,73.62
2023-03-20T05:48:48.030Z,72.67
2023-03-20T05:51:16.127Z,72.69
2023-03-20T05:53:43.869Z,73.02
2023-03-20T05:56:13.792Z,73.18
2023-03-20T05:58:42.565Z,73.38
2023-03-20T06:01:10.718Z,74.86
2023-03-20T06:03:39.934Z,72.51
2023-03-20T06:06:08.376Z,73.69
2023-03-20T06:08:39.458Z,72.16
2023-03-20T06:11:08.058Z,71.33
2023-03-20T06:13:38.049Z,72.74
2023-03-20T06:16:08.658Z,73.39
2023-03-20T06:18:36.544Z,73.11
2023-03-20T06:21:09.443Z,72.10
2023-03-20T06:23:39.451Z,71.00
2023-03-20T06:26:13.361Z,72.80
2023-03-20T06:28:44.087Z,70.92
2023-03-20T06:31:14.740Z,70.57
2023-03-20T06:33:45.518Z,71.47
2023-03-20T06:36:19.102Z,72.30
2023-03-20T06:38:46.919Z,71.21
2023-03-20T06:41:24.561Z,72.40
2023-03-20T06:44:03.365Z,70.22
2023-03-20T06:46:31.368Z,71.50
2023-03-20T06:48:59.162Z,70.34
2023-03-20T06:51:28.340Z,70.38
2023-03-20T06:53:56.744Z,70.56
2023-03-20T06:56:25.443Z,69.12
2023-03-20T06:58:53.287Z,70.27
2023-03-20T07:01:21.241Z,70.09
2023-03-20T07:03:49.050Z,70.33
2023-03-20T07:06:18.459Z,70.60
2023-03-20T07:08:47.665Z,69.94
2023-03-20T07:11:18.691Z,70.10
2023-03-20T07:13:49.832Z,70.96
2023-03-20T07:16:20.572Z,70.54
2023-03-20T07:18:50.047Z,70.36
2023-03-20T07:21:20.459Z,71.24
2023-03-20T07:23:49.932Z,74.06
2023-03-20T07:26:20.118Z,71.53
2023-03-20T07:28:52.780Z,70.65
2023-03-20T07:31:24.724Z,72.02
2023-03-20T07:33:52.770Z,71.24
2023-03-20T07:36:20.601Z,70.70
2023-03-20T07:38:51.909Z,69.41
2023-03-20T07:41:21.824Z,68.83
2023-03-20T07:43:52.872Z,71.60
2023-03-20T07:46:23.437Z,69.60
2023-03-20T07:48:51.463Z,69.53
2023-03-20T07:51:21.656Z,68.03
2023-03-20T07:53:54.899Z,69.12
2023-03-20T07:56:24.097Z,67.60
2023-03-20T07:58:53.388Z,70.30
2023-03-20T08:01:29.548Z,69.83
2023-03-20T08:03:59.075Z,69.08
2023-03-20T08:06:28.231Z,68.52
2023-03-20T08:08:59.463Z,69.71
2023-03-20T08:11:32.031Z,70.66
2023-03-20T08:14:04.840Z,73.96
2023-03-20T08:16:36.294Z,72.67
2023-03-20T08:19:08.531Z,71.15
2023-03-20T08:21:42.645Z,71.83
2023-03-20T08:24:21.720Z,70.28
2023-03-20T08:26:50.281Z,68.05
2023-03-20T08:29:19.890Z,68.03
2023-03-20T08:31:47.747Z,69.87
2023-03-20T08:34:15.616Z,67.31
2023-03-20T08:36:43.816Z,67.04
2023-03-20T08:39:13.286Z,64.76
2023-03-20T08:41:43.621Z,66.42
2023-03-20T08:44:14.652Z,66.26
2023-03-20T08:46:44.739Z,65.82
2023-03-20T08:49:14.004Z,63.54
2023-03-20T08:51:43.069Z,64.91
2023-03-20T08:54:18.470Z,62.50
2023-03-20T08:56:50.471Z,63.65
2023-03-20T08:59:22.514Z,64.86
2023-03-20T09:01:50.683Z,64.90
2023-03-20T09:04:21.203Z,61.85
2023-03-20T09:06:50.522Z,65.38
2023-03-20T09:09:29.278Z,65.08
2023-03-20T09:11:58.188Z,63.05
2023-03-20T09:14:31.195Z,64.55
2023-03-20T09:16:59.504Z,65.06
2023-03-20T09:19:30.734Z,65.01
2023-03-20T09:21:59.828Z,65.43
2023-03-20T09:24:31.536Z,66.62
2023-03-20T09:27:03.113Z,65.65
2023-03-20T09:29:35.041Z,65.55
2023-03-20T09:32:03.851Z,65.78
2023-03-20T09:34:31.710Z,65.43
2023-03-20T09:37:05.667Z,66.60
2023-03-20T09:39:36.294Z,66.11
2023-03-20T09:42:10.375Z,64.63
2023-03-20T09:44:47.674Z,64.08
2023-03-20T09:47:23.704Z,65.00
2023-03-20T09:50:03.196Z,65.50
2023-03-20T09:52:35.327Z,68.44
2023-03-20T09:55:09.014Z,64.87
2023-03-20T09:57:40.416Z,66.32
2023-03-20T10:00:13.234Z,64.56
2023-03-20T10:02:49.545Z,66.19
2023-03-20T10:05:25.074Z,65.25
2023-03-20T10:07:54.269Z,66.63
2023-03-20T10:10:32.885Z,66.44
2023-03-20T10:13:09.133Z,64.41
2023-03-20T10:15:46.974Z,63.74
2023-03-20T10:18:20.026Z,65.20
2023-03-20T10:20:52.733Z,64.89
2023-03-20T10:23:28.676Z,64.60
2023-03-20T10:26:07.297Z,65.26
2023-03-20T10:28:43.960Z,66.85
2023-03-20T10:31:43.779Z,67.46
2023-03-20T10:34:36.946Z,69.25
2023-03-20T10:37:17.791Z,70.65
2023-03-20T10:39:55.355Z,68.15
2023-03-20T10:42:39.205Z,67.06
2023-03-20T10:45:12.506Z,68.78
2023-03-20T10:47:42.592Z,71.10
2023-03-20T10:50:23.138Z,71.55
2023-03-20T10:52:55.451Z,70.72
2023-03-20T10:55:28.631Z,69.62
2023-03-20T10:58:03.428Z,67.24
2023-03-20T11:00:34.668Z,66.36
2023-03-20T11:03:03.106Z,66.84
2023-03-20T11:05:36.886Z,66.22
2023-03-20T11:08:06.968Z,64.79
2023-03-20T11:10:38.629Z,67.04
2023-03-20T11:13:25.126Z,63.92
2023-03-20T11:15:53.770Z,66.06
2023-03-20T11:18:22.442Z,66.19
2023-03-20T11:20:57.410Z,66.76
2023-03-20T11:23:27.422Z,66.60
2023-03-20T11:25:59.200Z,64.53
2023-03-20T11:28:38.308Z,62.79
2023-03-20T11:31:08.393Z,65.86
2023-03-20T11:33:40.903Z,64.08
2023-03-20T11:36:13.783Z,63.42
2023-03-20T11:38:46.303Z,66.63
2023-03-20T11:41:20.625Z,66.45
2023-03-20T11:43:50.046Z,66.04
2023-03-20T11:46:18.080Z,64.46
2023-03-20T11:49:06.316Z,63.70
2023-03-20T11:51:37.223Z,66.75
2023-03-20T11:54:07.133Z,67.00
2023-03-20T11:56:35.680Z,63.36
2023-03-20T11:59:13.015Z,63.59
2023-03-20T12:01:44.874Z,65.22
2023-03-20T12:04:15.016Z,65.99
2023-03-20T12:06:47.243Z,66.04
2023-03-20T12:09:35.470Z,65.23
2023-03-20T12:12:05.084Z,65.01
2023-03-20T12:14:46.039Z,63.00
2023-03-20T12:17:28.636Z,65.75
2023-03-20T12:20:01.526Z,65.96
2023-03-20T12:22:33.579Z,67.75
2023-03-20T12:25:06.027Z,66.31
2023-03-20T12:27:41.860Z,67.03
2023-03-20T12:30:16.926Z,64.10
2023-03-20T12:32:56.095Z,63.29
2023-03-20T12:35:28.660Z,62.83
2023-03-20T12:37:59.313Z,62.84
2023-03-20T12:40:43.786Z,62.72
2023-03-20T12:43:16.468Z,65.74
2023-03-20T12:45:52.327Z,64.24
2023-03-20T12:48:44.153Z,64.08
2023-03-20T12:51:16.567Z,64.61
2023-03-20T12:53:56.649Z,64.73
2023-03-20T12:56:34.443Z,66.22
2023-03-20T12:59:07.675Z,64.37
2023-03-20T13:01:43.703Z,62.87
2023-03-20T13:04:53.334Z,62.58
2023-03-20T13:07:22.632Z,61.74
2023-03-20T13:10:01.872Z,62.09
2023-03-20T13:12:42.463Z,63.47
2023-03-20T13:15:21.842Z,60.63
2023-03-20T13:17:55.553Z,61.77
2023-03-20T13:20:27.097Z,61.33
2023-03-20T13:23:14.633Z,61.03
2023-03-20T13:25:54.277Z,59.93
2023-03-20T13:28:31.294Z,60.76
2023-03-20T13:31:03.449Z,59.28
2023-03-20T13:33:44.646Z,59.31
2023-03-20T13:36:19.200Z,57.28
2023-03-20T13:38:49.483Z,57.63
2023-03-20T13:41:20.500Z,55.36
2023-03-20T13:43:54.375Z,54.56
2023-03-20T13:46:27.987Z,56.59
2023-03-20T13:49:02.708Z,55.81
2023-03-20T13:51:34.064Z,54.06
2023-03-20T13:54:08.722Z,53.08
2023-03-20T13:56:43.800Z,53.79
2023-03-20T13:59:25.503Z,52.48
2023-03-20T14:01:59.851Z,53.30
2023-03-20T14:04:29.600Z,56.29
2023-03-20T14:06:58.623Z,57.88
2023-03-20T14:09:36.187Z,56.24
2023-03-20T14:12:07.322Z,58.30
2023-03-20T14:14:42.103Z,57.39
2023-03-20T14:17:19.397Z,57.25
2023-03-20T14:19:49.764Z,56.63
2023-03-20T14:22:22.501Z,54.76
2023-03-20T14:24:56.152Z,55.78
2023-03-20T14:27:41.116Z,55.46
2023-03-20T14:30:41.854Z,53.68
2023-03-20T14:33:28.019Z,54.80
2023-03-20T14:36:22.667Z,55.08
2023-03-20T14:39:00.149Z,54.99
2023-03-20T14:41:32.667Z,55.69
2023-03-20T14:44:14.797Z,54.30
2023-03-20T14:46:49.883Z,55.39
2023-03-20T14:49:28.268Z,56.36
2023-03-20T14:52:03.477Z,55.13
2023-03-20T14:54:35.261Z,56.22
2023-03-20T14:57:11.340Z,56.79
2023-03-20T14:59:42.332Z,60.41
2023-03-20T15:02:28.447Z,58.89
2023-03-20T15:04:57.388Z,56.69
2023-03-20T15:07:30.033Z,58.13
2023-03-20T15:10:00.343Z,57.11
2023-03-20T15:12:30.456Z,57.66
2023-03-20T15:15:00.313Z,58.21
2023-03-20T15:17:29.989Z,58.61
2023-03-20T15:20:02.855Z,59.68
2023-03-20T15:22:32.388Z,60.28
2023-03-20T15:25:01.581Z,59.64
2023-03-20T15:27:43.343Z,59.99
2023-03-20T15:30:15.722Z,59.41
2023-03-20T15:32:44.145Z,58.79
2023-03-20T15:35:13.167Z,59.68
2023-03-20T15:37:47.717Z,60.13
2023-03-20T15:40:23.517Z,58.79
2023-03-20T15:42:55.526Z,59.41
2023-03-20T15:45:29.720Z,60.76
2023-03-20T15:48:01.663Z,59.71
2023-03-20T15:50:33.171Z,61.34
2023-03-20T15:53:02.841Z,61.30
2023-03-20T15:55:31.130Z,60.88
2023-03-20T15:58:00.637Z,59.94
2023-03-20T16:00:31.286Z,59.79
2023-03-20T16:03:00.954Z,58.36
2023-03-20T16:05:30.470Z,57.90
2023-03-20T16:08:15.150Z,59.17
2023-03-20T16:10:46.214Z,58.31
2023-03-20T16:13:17.150Z,59.19
2023-03-20T16:15:45.427Z,59.20
2023-03-20T16:18:18.146Z,57.97
2023-03-20T16:20:50.137Z,57.66
2023-03-20T16:23:34.286Z,57.23
2023-03-20T16:26:02.600Z,58.89
2023-03-20T16:28:33.375Z,59.20
2023-03-20T16:31:09.812Z,57.94
2023-03-20T16:33:40.253Z,58.63
2023-03-20T16:36:17.089Z,60.54
2023-03-20T16:38:56.760Z,60.77
2023-03-20T16:41:29.850Z,60.42
2023-03-20T16:43:58.281Z,61.00
2023-03-20T16:46:27.953Z,61.55
2023-03-20T16:49:04.177Z,60.81
2023-03-20T16:51:34.752Z,61.20
2023-03-20T16:54:06.971Z,60.48
2023-03-20T16:56:38.676Z,59.53
2023-03-20T16:59:08.856Z,59.54
2023-03-20T17:01:39.888Z,61.29
2023-03-20T17:04:25.908Z,60.42
2023-03-20T17:06:55.456Z,59.60
2023-03-20T17:09:31.204Z,59.71
2023-03-20T17:12:03.332Z,60.83
2023-03-20T17:14:31.683Z,59.90
2023-03-20T17:17:00.438Z,60.84
2023-03-20T17:19:30.739Z,60.59
2023-03-20T17:22:03.583Z,61.38
2023-03-20T17:24:32.850Z,62.31
2023-03-20T17:27:00.854Z,62.85
2023-03-20T17:29:29.023Z,62.35
2023-03-20T17:31:56.857Z,63.07
2023-03-20T17:34:27.677Z,61.10
2023-03-20T17:36:56.266Z,61.92
2023-03-20T17:39:24.792Z,62.55
2023-03-20T17:41:54.013Z,62.58
2023-03-20T17:44:22.148Z,61.89
2023-03-20T17:46:58.458Z,62.29
2023-03-20T17:49:29.542Z,63.18
2023-03-20T17:51:58.121Z,62.97
2023-03-20T17:54:28.590Z,62.15
2023-03-20T17:56:57.887Z,62.53
2023-03-20T17:59:28.785Z,61.40
2023-03-20T18:01:56.851Z,61.98
2023-03-20T18:04:25.347Z,61.43
2023-03-20T18:06:53.628Z,60.51
2023-03-20T18:09:34.258Z,62.18
2023-03-20T18:12:03.475Z,60.94
2023-03-20T18:14:31.745Z,62.01
2023-03-20T18:17:02.120Z,61.64
2023-03-20T18:19:33.135Z,62.72
2023-03-20T18:22:01.034Z,62.06
2023-03-20T18:24:28.958Z,63.50
2023-03-20T18:27:00.104Z,62.09
2023-03-20T18:29:32.279Z,62.77
2023-03-20T18:32:03.099Z,61.21
2023-03-20T18:34:35.106Z,60.19
2023-03-20T18:37:04.672Z,63.13
2023-03-20T18:39:33.084Z,63.31
2023-03-20T18:42:01.081Z,64.32
2023-03-20T18:44:30.249Z,62.85
2023-03-20T18:47:00.420Z,63.68
2023-03-20T18:49:31.686Z,63.21
2023-03-20T18:52:03.748Z,63.52
2023-03-20T18:54:36.914Z,63.97
2023-03-20T18:57:04.922Z,62.86
2023-03-20T18:59:34.046Z,65.38
2023-03-20T19:02:01.904Z,65.10
2023-03-20T19:04:32.822Z,66.79
2023-03-20T19:07:00.948Z,65.53
2023-03-20T19:09:31.439Z,66.16
2023-03-20T19:12:11.925Z,63.58
2023-03-20T19:14:46.868Z,66.30
2023-03-20T19:17:18.605Z,65.47
2023-03-20T19:19:46.401Z,67.88
2023-03-20T19:22:29.002Z,68.76
2023-03-20T19:24:57.310Z,70.06
2023-03-20T19:27:25.120Z,70.46
2023-03-20T19:29:57.172Z,69.33
2023-03-20T19:32:24.955Z,69.31
2023-03-20T19:35:40.877Z,71.46
2023-03-20T19:37:45.069Z,70.99
2023-03-20T19:40:21.898Z,69.20
2023-03-20T19:43:02.405Z,67.97
2023-03-20T19:45:34.121Z,67.57
2023-03-20T19:48:04.021Z,64.82
2023-03-20T19:50:34.971Z,63.71
2023-03-20T19:53:04.125Z,63.81
2023-03-20T19:55:40.472Z,64.40
2023-03-20T20:01:14.233Z,62.84
2023-03-20T20:03:43.531Z,63.79
2023-03-20T20:06:30.919Z,64.55
2023-03-20T20:09:01.854Z,62.21
2023-03-20T20:11:30.231Z,61.91
2023-03-20T20:14:07.012Z,63.33
2023-03-20T20:16:39.684Z,64.51
2023-03-20T20:19:07.813Z,62.29
2023-03-20T20:22:19.203Z,62.54
2023-03-20T20:24:28.963Z,62.27
2023-03-20T20:27:15.738Z,63.30
2023-03-20T20:29:44.688Z,62.04
2023-03-20T20:32:19.019Z,60.65
2023-03-20T20:38:27.171Z,62.72
2023-03-20T20:40:30.488Z,61.44
2023-03-20T20:43:01.751Z,60.96
2023-03-20T20:45:31.634Z,59.87
2023-03-20T20:48:01.540Z,60.38
2023-03-20T20:50:36.091Z,59.56
2023-03-20T20:53:08.200Z,59.56
2023-03-20T20:55:38.817Z,59.00
2023-03-20T20:58:06.934Z,59.70
2023-03-20T21:00:50.678Z,59.92
2023-03-20T21:03:22.479Z,59.53
2023-03-20T21:05:52.348Z,61.00
2023-03-20T21:08:20.145Z,60.20
2023-03-20T21:10:52.202Z,60.12
2023-03-20T21:13:22.951Z,60.92
2023-03-20T21:15:58.563Z,60.19
2023-03-20T21:18:27.910Z,60.78
2023-03-20T21:20:56.777Z,60.24
2023-03-20T21:23:26.027Z,61.36
2023-03-20T21:25:57.362Z,61.11
2023-03-20T21:28:27.390Z,61.67
2023-03-20T21:31:22.721Z,60.92
2023-03-20T21:33:44.394Z,60.43
2023-03-20T21:36:13.276Z,59.78
2023-03-20T21:41:31.405Z,59.47
2023-03-20T21:44:01.266Z,60.65
2023-03-20T21:55:45.869Z,60.11
2023-03-20T22:04:06.309Z,60.29
2023-03-20T22:09:52.300Z,61.40
2023-03-20T22:24:05.760Z,62.22
2023-03-20T22:32:33.355Z,62.91
2023-03-20T22:35:15.184Z,61.90
2023-03-20T22:37:56.214Z,62.09
2023-03-20T22:43:57.171Z,62.87
2023-03-20T22:46:03.240Z,63.34
2023-03-20T22:48:35.637Z,63.33
2023-03-20T22:51:03.389Z,63.92
2023-03-20T22:53:35.225Z,63.72
2023-03-20T22:56:07.566Z,62.92
2023-03-20T22:58:35.328Z,61.90
2023-03-20T23:01:03.298Z,61.88
2023-03-20T23:03:41.348Z,62.15
2023-03-20T23:06:11.396Z,61.49
2023-03-20T23:08:49.157Z,61.80
2023-03-20T23:11:21.476Z,61.33
2023-03-20T23:13:51.778Z,61.34
2023-03-20T23:16:20.190Z,62.55
2023-03-20T23:18:48.466Z,62.04
2023-03-20T23:21:18.267Z,62.28
2023-03-20T23:23:57.530Z,61.37
2023-03-20T23:26:29.070Z,62.74
2023-03-20T23:28:57.634Z,61.68
2023-03-20T23:31:28.920Z,62.26
2023-03-20T23:33:58.871Z,62.78
2023-03-20T23:36:37.170Z,63.32
2023-03-20T23:39:06.072Z,63.59
2023-03-20T23:42:04.687Z,63.71
2023-03-20T23:44:23.874Z,62.46
2023-03-20T23:46:51.749Z,61.91
2023-03-20T23:49:19.631Z,61.64
2023-03-20T23:51:47.673Z,62.85
2023-03-20T23:54:15.961Z,62.94
2023-03-20T23:56:45.272Z,63.12
2023-03-20T23:59:21.847Z,63.05
